Flight Track Log - Related Links

Times and Time Zones

All times are in EDT time to prevent confusion due to time zone crossing. See the DAL159 flight status page for this flight to view local times or setup timezone preferences in your user account.

Time Position Orientation Groundspeed Altitude Reporting Facility
EDT Latitude Longitude Course Direction KTS MPH feet Rate Location/Type
Sat 12:49:12 PM 42.1925 -83.3914 North 189 217 1,400  Level Cleveland Center
Sat 12:50:38 PM 42.1358 -83.4869 231° Southwest 268 308 2,900 1,533 Climbing Cleveland Center
Sat 12:52:00 PM 42.7165 -83.3500 North  Level FlightAware Approximate
Sat 12:53:00 PM 42.8457 -83.3500 North  Level FlightAware Approximate
Sat 12:54:00 PM 42.9726 -83.3667 North  Level FlightAware Approximate
Sat 12:56:42 PM 42.6080 -83.5310 231° Southwest 389 448 12,900  Level FlightAware ADS-B
Sat 12:57:32 PM 42.6910 -83.4870 21° North 399 459 14,300 1,650 Climbing FlightAware ADS-B
Sat 12:58:02 PM 42.7470 -83.4560 22° Northeast 412 474 15,100 1,650 Climbing FlightAware ADS-B
Sat 12:58:52 PM 42.8350 -83.4190 17° North 426 490 16,500 1,725 Climbing FlightAware ADS-B
Sat 12:59:22 PM 42.8960 -83.4260 355° North 433 498 17,400 1,800 Climbing FlightAware ADS-B
Sat 01:00:02 PM 42.9770 -83.4460 350° North 439 505 18,600 1,765 Climbing FlightAware ADS-B
Sat 01:00:47 PM 43.0680 -83.4680 350° North 443 510 19,900 1,694 Climbing FlightAware ADS-B
Sat 01:01:27 PM 43.1510 -83.4880 350° North 448 516 21,000 1,575 Climbing FlightAware ADS-B
Sat 01:02:07 PM 43.2340 -83.5070 351° North 455 524 22,000 1,341 Climbing FlightAware ADS-B
Sat 01:02:52 PM 43.3210 -83.5270 351° North 461 531 22,900 1,271 Climbing FlightAware ADS-B
Sat 01:03:32 PM 43.4100 -83.5490 350° North 467 537 23,800 1,271 Climbing FlightAware ADS-B
Sat 01:04:17 PM 43.5090 -83.5730 350° North 475 547 24,700 1,129 Climbing FlightAware ADS-B
Sat 01:04:57 PM 43.5970 -83.5940 350° North 480 552 25,400 1,059 Climbing FlightAware ADS-B
Sat 01:05:42 PM 43.6940 -83.6180 350° North 485 558 26,200 988 Climbing FlightAware ADS-B
Sat 01:06:22 PM 43.7820 -83.6390 350° North 490 564 26,800 847 Climbing FlightAware ADS-B
Sat 01:07:07 PM 43.8850 -83.6650 350° North 499 574 27,400 847 Climbing FlightAware ADS-B
Sat 01:07:47 PM 43.9770 -83.6870 350° North 502 578 28,000 900 Climbing FlightAware ADS-B
Sat 01:08:27 PM 44.0680 -83.7100 350° North 505 581 28,600 847 Climbing FlightAware ADS-B
Sat 01:09:12 PM 44.1700 -83.7350 350° North 509 586 29,200 918 Climbing FlightAware ADS-B
Sat 01:09:52 PM 44.2630 -83.7580 350° North 507 583 29,900 1,129 Climbing FlightAware ADS-B
Sat 01:10:37 PM 44.3680 -83.7840 350° North 502 578 30,800 1,059 Climbing FlightAware ADS-B
Sat 01:11:17 PM 44.4570 -83.8070 350° North 500 575 31,400 900 Climbing FlightAware ADS-B
Sat 01:11:57 PM 44.5490 -83.8300 350° North 497 572 32,000 424 Climbing FlightAware ADS-B
Sat 01:12:42 PM 44.6470 -83.8550 350° North 496 571 32,000  Level FlightAware ADS-B
Sat 01:13:22 PM 44.7410 -83.8780 350° North 494 568 32,000  Level FlightAware ADS-B
Sat 01:14:02 PM 44.8300 -83.9010 350° North 492 566 32,000  Level FlightAware ADS-B
Sat 01:14:47 PM 44.9320 -83.9270 350° North 490 564 32,000  Level FlightAware ADS-B
Sat 01:15:27 PM 45.0230 -83.9500 350° North 489 563 32,000  Level FlightAware ADS-B
Sat 01:16:12 PM 45.1210 -83.9750 350° North 489 563 32,000  Level FlightAware ADS-B
Sat 01:16:52 PM 45.2070 -83.9970 350° North 490 564 32,000  Level FlightAware ADS-B
Sat 01:17:37 PM 45.3060 -84.0230 350° North 491 565 32,000  Level FlightAware ADS-B
Sat 01:18:17 PM 45.4010 -84.0480 350° North 491 565 32,000  Level FlightAware ADS-B
Sat 01:18:57 PM 45.4900 -84.0710 350° North 492 566 32,000  Level FlightAware ADS-B
Sat 01:19:37 PM 45.5790 -84.0940 350° North 493 567 32,000  Level FlightAware ADS-B
Sat 01:20:22 PM 45.6780 -84.1200 350° North 493 567 32,000  Level FlightAware ADS-B
Sat 01:21:07 PM 45.7820 -84.1470 350° North 494 568 32,000  Level FlightAware ADS-B
Sat 01:21:47 PM 45.8720 -84.1710 349° North 495 570 32,000  Level FlightAware ADS-B
Sat 01:22:27 PM 45.9620 -84.1950 349° North 495 570 32,000  Level FlightAware ADS-B
Sat 01:23:12 PM 46.0600 -84.2210 350° North 495 570 32,000  Level FlightAware ADS-B
Sat 01:23:52 PM 46.1510 -84.2450 350° North 496 571 32,000  Level FlightAware ADS-B
Sat 01:24:37 PM 46.2550 -84.2730 349° North 496 571 32,000  Level FlightAware ADS-B
Sat 01:25:17 PM 46.3430 -84.2960 350° North 496 571 32,000  Level FlightAware ADS-B
Sat 01:25:57 PM 46.4330 -84.3310 345° North 497 572 32,000  Level FlightAware ADS-B
Sat 01:26:42 PM 46.5270 -84.3810 340° North 496 571 32,000  Level FlightAware ADS-B
Sat 01:27:22 PM 46.6140 -84.4290 339° North 495 570 32,000  Level FlightAware ADS-B
Sat 01:28:07 PM 46.7120 -84.4850 339° North 495 570 32,000  Level FlightAware ADS-B
Sat 01:28:47 PM 46.7970 -84.5340 338° Northwest 496 571 32,000  Level FlightAware ADS-B
Sat 01:29:27 PM 46.8830 -84.5850 338° Northwest 496 571 32,000  Level FlightAware ADS-B
Sat 01:30:12 PM 46.9750 -84.6380 339° North 497 572 32,000  Level FlightAware ADS-B
Sat 01:30:52 PM 47.0610 -84.6880 338° Northwest 497 572 32,000  Level FlightAware ADS-B
Sat 01:31:32 PM 47.1460 -84.7380 338° Northwest 498 573 32,000  Level FlightAware ADS-B
Sat 01:32:17 PM 47.2440 -84.7960 338° Northwest 498 573 32,000  Level FlightAware ADS-B
Sat 01:32:57 PM 47.3300 -84.8460 338° Northwest 498 573 32,000  Level FlightAware ADS-B
Sat 01:33:42 PM 47.4250 -84.9020 338° Northwest 499 574 32,000  Level FlightAware ADS-B
Sat 01:34:22 PM 47.5100 -84.9530 338° Northwest 499 574 32,000  Level FlightAware ADS-B
Sat 01:35:07 PM 47.6080 -85.0110 338° Northwest 499 574 32,000  Level FlightAware ADS-B
Sat 01:35:47 PM 47.6950 -85.0630 338° Northwest 499 574 32,000  Level FlightAware ADS-B
Sat 01:36:32 PM 47.7870 -85.1180 338° Northwest 499 574 32,000  Level FlightAware ADS-B
Sat 01:37:12 PM 47.8690 -85.1670 338° Northwest 499 574 32,000  Level FlightAware ADS-B
Sat 01:37:47 PM 47.9420 -85.2130 337° Northwest 499 574 32,000  Level FlightAware ADS-B
Sat 01:38:37 PM 48.0320 -85.2700 337° Northwest 499 574 32,000  Level FlightAware ADS-B
Sat 01:39:17 PM 48.1040 -85.3160 337° Northwest 499 574 32,000  Level FlightAware ADS-B
Sat 01:39:57 PM 48.1770 -85.3620 337° Northwest 499 574 32,000  Level FlightAware ADS-B
Sat 01:40:37 PM 48.2490 -85.4080 337° Northwest 499 574 32,000  Level FlightAware ADS-B
Sat 01:41:17 PM 48.3210 -85.4540 337° Northwest 499 574 32,000  Level FlightAware ADS-B
Sat 01:41:57 PM 48.3930 -85.5000 337° Northwest 499 574 32,000  Level FlightAware ADS-B
Sat 01:42:47 PM 48.4840 -85.5580 337° Northwest 499 574 32,000  Level FlightAware ADS-B
Sat 01:43:27 PM 48.5560 -85.6040 337° Northwest 499 574 32,000  Level FlightAware ADS-B
Sat 01:44:07 PM 48.6280 -85.6510 337° Northwest 499 574 32,000  Level FlightAware ADS-B
Sat 01:44:47 PM 48.7000 -85.6970 337° Northwest 499 574 32,000  Level FlightAware ADS-B
Sat 01:45:37 PM 48.7910 -85.7550 337° Northwest 499 574 32,000  Level FlightAware ADS-B
Sat 01:46:17 PM 48.8630 -85.8020 337° Northwest 499 574 32,000  Level FlightAware ADS-B
Sat 01:46:57 PM 48.9350 -85.8480 337° Northwest 499 574 32,000  Level FlightAware ADS-B
Sat 01:47:27 PM 49.1500 -85.9500 337° Northwest 500 575 32,000  Level Winnipeg Center
Sat 01:48:28 PM 49.3000 -86.0167 344° North 500 575 32,000  Level Winnipeg Center
Sat 01:49:27 PM 49.4167 -86.0833 340° North 490 564 32,000  Level Winnipeg Center
Sat 01:50:27 PM 49.5500 -86.1833 334° Northwest 500 575 32,000  Level Winnipeg Center
Sat 01:51:28 PM 49.6667 -86.2667 335° Northwest 490 564 32,000  Level Winnipeg Center
Sat 01:52:27 PM 49.8000 -86.3333 342° North 490 564 32,000  Level Winnipeg Center
Sat 01:53:27 PM 49.9167 -86.4167 335° Northwest 490 564 32,000  Level Winnipeg Center
Sat 01:54:28 PM 50.0500 -86.5167 334° Northwest 490 564 32,000  Level Winnipeg Center
Sat 01:55:27 PM 50.1667 -86.5667 345° North 490 564 32,000  Level Winnipeg Center
Sat 01:56:28 PM 50.3000 -86.6500 338° Northwest 500 575 32,000  Level Winnipeg Center
Sat 01:57:27 PM 50.4333 -86.7167 342° North 500 575 32,000  Level Winnipeg Center
Sat 01:58:11 PM 50.5000 -86.7333 351° North 490 564 32,000  Level Edmonton Center
Sat 01:59:27 PM 50.7000 -86.8500 340° North 490 564 32,000  Level Winnipeg Center
Sat 02:00:27 PM 50.8333 -86.9000 347° North 490 564 32,000  Level Winnipeg Center
Sat 02:01:27 PM 50.9667 -86.9500 347° North 490 564 32,000  Level Winnipeg Center
Sat 02:02:27 PM 51.0833 -87.0333 336° Northwest 490 564 32,000  Level Winnipeg Center
Sat 02:03:27 PM 51.2333 -87.0833 348° North 490 564 32,000  Level Winnipeg Center
Sat 02:04:27 PM 51.3667 -87.1500 343° North 490 564 32,000  Level Winnipeg Center
Sat 02:05:28 PM 51.5000 -87.2167 343° North 490 564 32,000  Level Winnipeg Center
Sat 02:06:27 PM 51.6167 -87.2667 345° North 490 564 32,000  Level Winnipeg Center
Sat 02:07:27 PM 51.7500 -87.3500 339° North 490 564 32,000  Level Winnipeg Center
Sat 02:08:27 PM 51.8833 -87.4000 347° North 490 564 32,000  Level Winnipeg Center
Sat 02:09:27 PM 52.0167 -87.4833 339° North 490 564 32,000  Level Winnipeg Center
Sat 02:10:27 PM 52.1500 -87.5333 347° North 490 564 32,000  Level Winnipeg Center
Sat 02:11:27 PM 52.2833 -87.6167 339° North 490 564 32,000  Level Winnipeg Center
Sat 02:12:27 PM 52.4000 -87.6667 345° North 490 564 32,000  Level Winnipeg Center
Sat 02:13:27 PM 52.5333 -87.7333 343° North 490 564 32,000  Level Winnipeg Center
Sat 02:14:27 PM 52.6500 -87.8167 337° Northwest 490 564 32,000  Level Winnipeg Center
Sat 02:15:27 PM 52.8000 -87.8667 349° North 490 564 32,000  Level Winnipeg Center
Sat 02:16:27 PM 52.9167 -87.9500 337° Northwest 480 552 32,000  Level Winnipeg Center
Sat 02:17:27 PM 53.0333 -88.0167 341° North 480 552 32,000  Level Winnipeg Center
Sat 02:18:27 PM 53.1833 -88.1000 342° North 480 552 32,000  Level Winnipeg Center
Sat 02:19:27 PM 53.3000 -88.1500 346° North 480 552 32,000  Level Winnipeg Center
Sat 02:20:27 PM 53.4333 -88.2000 347° North 480 552 32,000  Level Winnipeg Center
Sat 02:21:27 PM 53.5667 -88.3000 336° Northwest 480 552 32,000  Level Winnipeg Center
Sat 02:22:27 PM 53.6833 -88.3500 346° North 480 552 32,000  Level Winnipeg Center
Sat 02:23:27 PM 53.8167 -88.4500 336° Northwest 480 552 32,000  Level Winnipeg Center
Sat 02:24:11 PM 53.9000 -88.4667 353° North 480 552 32,000  Level Edmonton Center
Sat 02:25:11 PM 54.0333 -88.5333 344° North 480 552 32,000  Level Edmonton Center
Sat 02:26:11 PM 54.1333 -88.6000 339° North 480 552 32,000  Level Edmonton Center
Sat 02:27:11 PM 54.2667 -88.6667 344° North 480 552 32,000  Level Edmonton Center
Sat 02:28:11 PM 54.4000 -88.7500 340° North 480 552 32,000  Level Edmonton Center
Sat 02:29:27 PM 54.5833 -88.8667 340° North 480 552 32,000  Level Winnipeg Center
Sat 02:30:27 PM 54.7000 -88.9333 342° North 480 552 32,000  Level Winnipeg Center
Sat 02:31:27 PM 54.8500 -89.0167 342° North 480 552 32,000  Level Winnipeg Center
Sat 02:32:27 PM 54.9500 -89.0833 339° North 480 552 32,000  Level Winnipeg Center
Sat 02:33:28 PM 55.0833 -89.1500 344° North 470 541 32,000  Level Winnipeg Center
Sat 02:34:27 PM 55.2167 -89.2333 340° North 470 541 32,000  Level Winnipeg Center
Sat 02:35:27 PM 55.3333 -89.3000 342° North 470 541 32,000  Level Winnipeg Center
Sat 02:36:27 PM 55.4500 -89.3667 342° North 470 541 32,000  Level Winnipeg Center
Sat 02:37:27 PM 55.5833 -89.4667 337° Northwest 470 541 32,000  Level Winnipeg Center
Sat 02:38:11 PM 55.6500 -89.4833 352° North 460 529 32,000  Level Edmonton Center
Sat 02:39:11 PM 55.7833 -89.5500 344° North 460 529 32,000  Level Edmonton Center
Sat 02:40:11 PM 55.8833 -89.6167 340° North 460 529 32,000  Level Edmonton Center
Sat 02:41:11 PM 56.0167 -89.6833 344° North 460 529 32,000  Level Edmonton Center
Sat 02:42:11 PM 56.1333 -89.7667 338° Northwest 460 529 32,000  Level Edmonton Center
Sat 02:43:11 PM 56.2667 -89.8333 344° North 460 529 32,000  Level Edmonton Center
Sat 02:44:27 PM 56.4500 -90.0000 333° Northwest 460 529 32,000  Level Winnipeg Center
Sat 02:45:27 PM 56.5667 -90.0333 351° North 470 541 32,000  Level Winnipeg Center
Sat 02:46:27 PM 56.6833 -90.1000 343° North 470 541 32,000  Level Winnipeg Center
Sat 02:47:27 PM 56.8167 -90.1667 345° North 460 529 32,000  Level Winnipeg Center
Sat 02:48:27 PM 56.9333 -90.2500 339° North 460 529 32,000  Level Winnipeg Center
Sat 02:49:27 PM 57.0667 -90.3167 345° North 470 541 32,000  Level Winnipeg Center
Sat 02:50:11 PM 57.1167 -90.3000 10° North 460 529 32,000  Level Edmonton Center
Sat 02:51:11 PM 57.2500 -90.3833 341° North 460 529 32,000  Level Edmonton Center
Sat 02:52:11 PM 57.3833 -90.4333 349° North 460 529 32,000  Level Edmonton Center
Sat 02:53:11 PM 57.5000 -90.5000 343° North 450 518 32,000  Level Edmonton Center
Sat 02:54:11 PM 57.6167 -90.5833 339° North 460 529 32,000  Level Edmonton Center
Sat 02:55:11 PM 57.7500 -90.6333 349° North 460 529 32,000  Level Edmonton Center
Sat 02:56:11 PM 57.8667 -90.7000 343° North 450 518 32,000  Level Edmonton Center
Sat 02:57:11 PM 57.9833 -90.7833 339° North 450 518 32,000  Level Edmonton Center
Sat 02:58:11 PM 58.1167 -90.8333 349° North 450 518 32,000  Level Edmonton Center
Sat 02:59:11 PM 58.2333 -90.9167 339° North 440 506 32,000  Level Edmonton Center
Sat 03:00:11 PM 58.3500 -90.9667 347° North 440 506 32,000  Level Edmonton Center
Sat 03:01:11 PM 58.4667 -91.0500 340° North 440 506 32,000  Level Edmonton Center
Sat 03:02:11 PM 58.6000 -91.1000 349° North 440 506 32,000  Level Edmonton Center
Sat 03:03:11 PM 58.7000 -91.1833 337° Northwest 440 506 32,000  Level Edmonton Center
Sat 03:04:11 PM 58.8333 -91.2333 349° North 440 506 32,000  Level Edmonton Center
Sat 03:05:11 PM 58.9500 -91.3333 336° Northwest 440 506 32,000  Level Edmonton Center
Sat 03:06:11 PM 59.0667 -91.3833 348° North 440 506 32,000  Level Edmonton Center
Sat 03:07:11 PM 59.1833 -91.4667 340° North 440 506 32,000  Level Edmonton Center
Sat 03:08:11 PM 59.3167 -91.5167 349° North 440 506 32,000  Level Edmonton Center
Sat 03:09:11 PM 59.4167 -91.6000 337° Northwest 440 506 32,000  Level Edmonton Center
Sat 03:10:11 PM 59.5333 -91.6667 344° North 440 506 32,000  Level Edmonton Center
Sat 03:11:11 PM 59.6667 -91.7500 342° North 440 506 32,000  Level Edmonton Center
Sat 03:12:11 PM 59.7667 -91.8000 346° North 440 506 32,000  Level Edmonton Center
Sat 03:13:11 PM 59.9000 -91.8833 343° North 440 506 32,000  Level Edmonton Center
Sat 03:14:11 PM 60.0167 -91.9500 344° North 440 506 32,000  Level Edmonton Center
Sat 03:15:11 PM 60.1167 -92.0500 334° Northwest 430 495 32,000  Level Edmonton Center
Sat 03:16:11 PM 60.2500 -92.1000 349° North 430 495 32,000  Level Edmonton Center
Sat 03:17:11 PM 60.3667 -92.2000 337° Northwest 430 495 32,000  Level Edmonton Center
Sat 03:18:11 PM 60.4667 -92.2500 346° North 430 495 32,000  Level Edmonton Center
Sat 03:19:11 PM 60.6000 -92.3167 346° North 430 495 32,000  Level Edmonton Center
Sat 03:20:11 PM 60.7167 -92.4000 341° North 430 495 32,000  Level Edmonton Center
Sat 03:21:11 PM 60.8167 -92.4667 342° North 430 495 32,000  Level Edmonton Center
Sat 03:22:11 PM 60.9333 -92.5667 337° Northwest 430 495 32,000  Level Edmonton Center
Sat 03:23:11 PM 61.0667 -92.6167 350° North 420 483 32,000  Level Edmonton Center
Sat 03:24:11 PM 61.1667 -92.6833 342° North 420 483 32,000  Level Edmonton Center
Sat 03:25:11 PM 61.2833 -92.7833 338° Northwest 420 483 32,000  Level Edmonton Center
Sat 03:26:11 PM 61.3833 -92.8500 342° North 420 483 32,000  Level Edmonton Center
Sat 03:27:11 PM 61.5000 -92.9167 345° North 420 483 32,000  Level Edmonton Center
Sat 03:28:11 PM 61.6167 -93.0167 338° Northwest 420 483 32,000  Level Edmonton Center
Sat 03:29:11 PM 61.7167 -93.0833 342° North 410 472 32,000  Level Edmonton Center
Sat 03:30:11 PM 61.8333 -93.1500 345° North 410 472 32,000  Level Edmonton Center
Sat 03:31:11 PM 61.9333 -93.2500 335° Northwest 410 472 32,000  Level Edmonton Center
Sat 03:32:11 PM 62.0500 -93.3167 345° North 410 472 32,000  Level Edmonton Center
Sat 03:33:11 PM 62.1667 -93.3833 345° North 410 472 32,000  Level Edmonton Center
Sat 03:34:11 PM 62.2667 -93.5000 332° Northwest 420 483 32,000  Level Edmonton Center
Sat 03:35:11 PM 62.4000 -93.5500 350° North 420 483 32,000  Level Edmonton Center
Sat 03:36:11 PM 62.5000 -93.6333 339° North 420 483 32,000  Level Edmonton Center
Sat 03:37:11 PM 62.6167 -93.7333 338° Northwest 420 483 32,000  Level Edmonton Center
Sat 03:38:11 PM 62.7167 -93.8000 343° North 420 483 32,000  Level Edmonton Center
Sat 03:39:11 PM 62.8333 -93.8833 342° North 420 483 32,000  Level Edmonton Center
Sat 03:40:11 PM 62.9500 -93.9833 339° North 420 483 32,000  Level Edmonton Center
Sat 03:41:11 PM 63.0500 -94.0500 343° North 420 483 32,000  Level Edmonton Center
Sat 03:42:11 PM 63.1667 -94.1333 342° North 420 483 32,000  Level Edmonton Center
Sat 03:43:11 PM 63.2667 -94.2333 336° Northwest 430 495 32,000  Level Edmonton Center
Sat 03:44:11 PM 63.4000 -94.3167 344° North 420 483 32,000  Level Edmonton Center
Sat 03:45:11 PM 63.5167 -94.4167 339° North 420 483 32,000  Level Edmonton Center
Sat 03:46:11 PM 63.6167 -94.5000 340° North 420 483 32,000  Level Edmonton Center
Sat 03:47:11 PM 63.7333 -94.5667 346° North 420 483 32,000  Level Edmonton Center
Sat 03:48:11 PM 63.8333 -94.6833 333° Northwest 420 483 32,000  Level Edmonton Center
Sat 03:49:11 PM 63.9667 -94.7667 345° North 420 483 32,000  Level Edmonton Center
Sat 03:50:11 PM 64.0667 -94.8833 333° Northwest 420 483 32,000  Level Edmonton Center
Sat 03:51:11 PM 64.1833 -94.9500 346° North 420 483 32,000  Level Edmonton Center
Sat 03:52:11 PM 64.2833 -95.0333 340° North 420 483 32,000  Level Edmonton Center
Sat 03:53:11 PM 64.4000 -95.1500 337° Northwest 420 483 32,000  Level Edmonton Center
Sat 03:54:11 PM 64.5000 -95.2333 340° North 420 483 32,000  Level Edmonton Center
Sat 03:55:11 PM 64.6167 -95.3500 337° Northwest 420 483 32,000  Level Edmonton Center
Sat 03:56:11 PM 64.7500 -95.4333 345° North 420 483 32,000 50 Level Edmonton Center
Sat 03:57:11 PM 64.8500 -95.5167 341° North 420 483 32,100 500 Climbing Edmonton Center
Sat 03:58:11 PM 64.9667 -95.6333 337° Northwest 420 483 33,000 800 Climbing Edmonton Center
Sat 03:59:11 PM 65.0667 -95.7167 341° North 430 495 33,700 500 Climbing Edmonton Center
Sat 04:00:11 PM 65.2000 -95.8333 340° North 430 495 34,000 150 Climbing Edmonton Center
Sat 04:01:11 PM 65.3000 -95.9333 337° Northwest 430 495 34,000  Level Edmonton Center
Sat 04:02:11 PM 65.4167 -96.0500 337° Northwest 430 495 34,000  Level Edmonton Center
Sat 04:03:11 PM 65.5333 -96.1333 344° North 430 495 34,000  Level Edmonton Center
Sat 04:04:11 PM 65.6500 -96.2667 335° Northwest 430 495 34,000  Level Edmonton Center
Sat 04:05:11 PM 65.7500 -96.3500 341° North 430 495 34,000  Level Edmonton Center
Sat 04:06:11 PM 65.8833 -96.4833 338° Northwest 440 506 34,000  Level Edmonton Center
Sat 04:08:00 PM 66.0997 -96.7103 337° Northwest  Level FlightAware Approximate
Sat 04:15:00 PM 66.9329 -97.6077 338° Northwest  Level FlightAware Approximate
Sat 04:16:00 PM 67.0526 -97.7341 338° Northwest  Level FlightAware Approximate
Sat 04:17:00 PM 67.1722 -97.8617 338° Northwest  Level FlightAware Approximate
Sat 04:18:00 PM 67.2917 -97.9906 337° Northwest  Level FlightAware Approximate
Sat 04:19:00 PM 67.4111 -98.1208 337° Northwest  Level FlightAware Approximate
Sat 04:20:00 PM 67.5304 -98.2524 337° Northwest  Level FlightAware Approximate
Sat 04:21:00 PM 67.6496 -98.3852 337° Northwest  Level FlightAware Approximate
Sat 04:22:00 PM 67.7687 -98.5194 337° Northwest  Level FlightAware Approximate
Sat 04:23:00 PM 67.8877 -98.6550 337° Northwest  Level FlightAware Approximate
Sat 04:24:00 PM 68.0066 -98.7919 337° Northwest  Level FlightAware Approximate
Sat 04:25:00 PM 68.1253 -98.9303 337° Northwest  Level FlightAware Approximate
Sat 04:26:00 PM 68.2440 -99.0701 336° Northwest  Level FlightAware Approximate
Sat 04:27:00 PM 68.3625 -99.2114 336° Northwest  Level FlightAware Approximate
Sat 04:28:00 PM 68.4809 -99.3541 336° Northwest  Level FlightAware Approximate
Sat 04:29:00 PM 68.5991 -99.4984 336° Northwest  Level FlightAware Approximate
Sat 04:30:00 PM 68.7173 -99.6442 336° Northwest  Level FlightAware Approximate
Sat 04:31:00 PM 68.8353 -99.7915 336° Northwest  Level FlightAware Approximate
Sat 04:32:00 PM 68.9532 -99.9404 336° Northwest  Level FlightAware Approximate
Sat 04:33:00 PM 69.0643 -100.1236 326° Northwest  Level FlightAware Approximate
Sat 04:34:00 PM 69.1708 -100.3304 325° Northwest  Level FlightAware Approximate
Sat 04:35:00 PM 69.2770 -100.5392 325° Northwest  Level FlightAware Approximate
Sat 04:36:00 PM 69.3830 -100.7501 325° Northwest  Level FlightAware Approximate
Sat 04:37:00 PM 69.4887 -100.9630 325° Northwest  Level FlightAware Approximate
Sat 04:38:00 PM 69.5942 -101.1781 325° Northwest  Level FlightAware Approximate
Sat 04:39:00 PM 69.6994 -101.3953 324° Northwest  Level FlightAware Approximate
Sat 04:40:00 PM 69.8044 -101.6146 324° Northwest  Level FlightAware Approximate
Sat 04:41:00 PM 69.9090 -101.8362 324° Northwest  Level FlightAware Approximate
Sat 04:42:00 PM 70.0134 -102.0599 324° Northwest  Level FlightAware Approximate
Sat 04:43:00 PM 70.1175 -102.2859 324° Northwest  Level FlightAware Approximate
Sat 04:44:00 PM 70.2213 -102.5142 323° Northwest  Level FlightAware Approximate
Sat 04:45:00 PM 70.3248 -102.7448 323° Northwest  Level FlightAware Approximate
Sat 04:46:00 PM 70.4280 -102.9778 323° Northwest  Level FlightAware Approximate
Sat 04:47:00 PM 70.5309 -103.2131 323° Northwest  Level FlightAware Approximate
Sat 04:48:00 PM 70.6335 -103.4508 323° Northwest  Level FlightAware Approximate
Sat 04:49:00 PM 70.7358 -103.6909 322° Northwest  Level FlightAware Approximate
Sat 04:50:00 PM 70.8378 -103.9335 322° Northwest  Level FlightAware Approximate
Sat 04:51:00 PM 70.9395 -104.1786 322° Northwest  Level FlightAware Approximate
Sat 04:52:00 PM 71.0408 -104.4262 322° Northwest  Level FlightAware Approximate
Sat 04:53:00 PM 71.1418 -104.6764 321° Northwest  Level FlightAware Approximate
Sat 04:54:00 PM 71.2425 -104.9292 321° Northwest  Level FlightAware Approximate
Sat 04:55:00 PM 71.3428 -105.1845 321° Northwest  Level FlightAware Approximate
Sat 04:56:00 PM 71.4428 -105.4426 321° Northwest  Level FlightAware Approximate
Sat 04:57:00 PM 71.5424 -105.7033 320° Northwest  Level FlightAware Approximate
Sat 04:58:00 PM 71.6416 -105.9668 320° Northwest  Level FlightAware Approximate
Sat 04:59:00 PM 71.7405 -106.2330 320° Northwest  Level FlightAware Approximate
Sat 05:00:00 PM 71.8390 -106.5021 320° Northwest  Level FlightAware Approximate
Sat 05:01:00 PM 71.9372 -106.7739 319° Northwest  Level FlightAware Approximate
Sat 05:02:00 PM 72.0345 -107.0502 318° Northwest  Level FlightAware Approximate
Sat 05:03:00 PM 72.1306 -107.3324 318° Northwest  Level FlightAware Approximate
Sat 05:04:00 PM 72.2263 -107.6175 318° Northwest  Level FlightAware Approximate
Sat 05:05:00 PM 72.3216 -107.9056 318° Northwest  Level FlightAware Approximate
Sat 05:06:00 PM 72.4165 -108.1967 317° Northwest  Level FlightAware Approximate
Sat 05:07:00 PM 72.5109 -108.4909 317° Northwest  Level FlightAware Approximate
Sat 05:08:00 PM 72.6060 -108.7840 318° Northwest  Level FlightAware Approximate
Sat 05:09:00 PM 72.7024 -109.0743 318° Northwest  Level FlightAware Approximate
Sat 05:10:00 PM 72.7983 -109.3678 318° Northwest  Level FlightAware Approximate
Sat 05:11:00 PM 72.8938 -109.6645 318° Northwest  Level FlightAware Approximate
Sat 05:12:00 PM 72.9888 -109.9644 317° Northwest  Level FlightAware Approximate
Sat 05:13:00 PM 73.0743 -110.2974 311° West  Level FlightAware Approximate
Sat 05:14:00 PM 73.1580 -110.6378 310° West  Level FlightAware Approximate
Sat 05:15:00 PM 73.2411 -110.9814 310° West  Level FlightAware Approximate
Sat 05:16:00 PM 73.3236 -111.3283 310° West  Level FlightAware Approximate
Sat 05:17:00 PM 73.4056 -111.6786 309° West  Level FlightAware Approximate
Sat 05:18:00 PM 73.4870 -112.0322 309° West  Level FlightAware Approximate
Sat 05:19:00 PM 73.5677 -112.3892 309° West  Level FlightAware Approximate
Sat 05:20:00 PM 73.6479 -112.7497 308° West  Level FlightAware Approximate
Sat 05:21:00 PM 73.7274 -113.1136 308° West  Level FlightAware Approximate
Sat 05:22:00 PM 73.8064 -113.4809 308° West  Level FlightAware Approximate
Sat 05:23:00 PM 73.8847 -113.8518 307° West  Level FlightAware Approximate
Sat 05:24:00 PM 73.9623 -114.2261 307° West  Level FlightAware Approximate
Sat 05:25:00 PM 74.0393 -114.6040 307° West  Level FlightAware Approximate
Sat 05:26:00 PM 74.1156 -114.9854 306° West  Level FlightAware Approximate
Sat 05:27:00 PM 74.1912 -115.3704 306° West  Level FlightAware Approximate
Sat 05:28:00 PM 74.2662 -115.7590 306° West  Level FlightAware Approximate
Sat 05:29:00 PM 74.3404 -116.1512 305° West  Level FlightAware Approximate
Sat 05:30:00 PM 74.4140 -116.5471 305° West  Level FlightAware Approximate
Sat 05:31:00 PM 74.4868 -116.9465 304° West  Level FlightAware Approximate
Sat 05:32:00 PM 74.5590 -117.3496 304° West  Level FlightAware Approximate
Sat 05:33:00 PM 74.6303 -117.7564 304° West  Level FlightAware Approximate
Sat 05:34:00 PM 74.7010 -118.1669 303° West  Level FlightAware Approximate
Sat 05:35:00 PM 74.7709 -118.5811 303° West  Level FlightAware Approximate
Sat 05:36:00 PM 74.8400 -118.9990 302° West  Level FlightAware Approximate
Sat 05:37:00 PM 74.9083 -119.4206 302° West  Level FlightAware Approximate
Sat 05:38:00 PM 74.9759 -119.8459 302° West  Level FlightAware Approximate
Sat 05:39:00 PM 75.0578 -120.2298 314° West  Level FlightAware Approximate
Sat 05:40:00 PM 75.1477 -120.5924 314° West  Level FlightAware Approximate
Sat 05:41:00 PM 75.2371 -120.9593 314° West  Level FlightAware Approximate
Sat 05:42:00 PM 75.3258 -121.3306 313° West  Level FlightAware Approximate
Sat 05:43:00 PM 75.4140 -121.7062 313° West  Level FlightAware Approximate
Sat 05:44:00 PM 75.5015 -122.0863 313° West  Level FlightAware Approximate
Sat 05:45:00 PM 75.5884 -122.4710 312° West  Level FlightAware Approximate
Sat 05:46:00 PM 75.6747 -122.8601 312° West  Level FlightAware Approximate
Sat 05:47:00 PM 75.7604 -123.2539 312° West  Level FlightAware Approximate
Sat 05:48:00 PM 75.8454 -123.6523 311° West  Level FlightAware Approximate
Sat 05:49:00 PM 75.9297 -124.0554 311° West  Level FlightAware Approximate
Sat 05:50:00 PM 76.0134 -124.4633 310° West  Level FlightAware Approximate
Sat 05:51:00 PM 76.0964 -124.8760 310° West  Level FlightAware Approximate
Sat 05:52:00 PM 76.1786 -125.2934 310° West  Level FlightAware Approximate
Sat 05:53:00 PM 76.2602 -125.7158 309° West  Level FlightAware Approximate
Sat 05:54:00 PM 76.3410 -126.1431 309° West  Level FlightAware Approximate
Sat 05:55:00 PM 76.4211 -126.5754 308° West  Level FlightAware Approximate
Sat 05:56:00 PM 76.5004 -127.0126 308° West  Level FlightAware Approximate
Sat 05:57:00 PM 76.5790 -127.4549 308° West  Level FlightAware Approximate
Sat 05:58:00 PM 76.6568 -127.9024 307° West  Level FlightAware Approximate
Sat 05:59:00 PM 76.7338 -128.3549 307° West  Level FlightAware Approximate
Sat 06:00:00 PM 76.8100 -128.8126 306° West  Level FlightAware Approximate
Sat 06:01:00 PM 76.8854 -129.2755 306° West  Level FlightAware Approximate
Sat 06:02:00 PM 76.9599 -129.7436 305° West  Level FlightAware Approximate
Sat 06:03:00 PM 77.0309 -130.2247 302° West  Level FlightAware Approximate
Sat 06:04:00 PM 77.0978 -130.7201 301° West  Level FlightAware Approximate
Sat 06:05:00 PM 77.1637 -131.2205 301° West  Level FlightAware Approximate
Sat 06:06:00 PM 77.2287 -131.7260 300° West  Level FlightAware Approximate
Sat 06:07:00 PM 77.2927 -132.2365 300° West  Level FlightAware Approximate
Sat 06:08:00 PM 77.3558 -132.7521 299° West  Level FlightAware Approximate
Sat 06:09:00 PM 77.4178 -133.2728 299° West  Level FlightAware Approximate
Sat 06:10:00 PM 77.4788 -133.7984 298° West  Level FlightAware Approximate
Sat 06:11:00 PM 77.5388 -134.3291 298° West  Level FlightAware Approximate
Sat 06:12:00 PM 77.5978 -134.8648 297° West  Level FlightAware Approximate
Sat 06:13:00 PM 77.6556 -135.4055 297° West  Level FlightAware Approximate
Sat 06:14:00 PM 77.7124 -135.9511 296° West  Level FlightAware Approximate
Sat 06:15:00 PM 77.7682 -136.5017 296° West  Level FlightAware Approximate
Sat 06:16:00 PM 77.8228 -137.0572 295° West  Level FlightAware Approximate
Sat 06:17:00 PM 77.8763 -137.6176 295° West  Level FlightAware Approximate
Sat 06:18:00 PM 77.9286 -138.1828 294° West  Level FlightAware Approximate
Sat 06:19:00 PM 77.9798 -138.7528 294° West  Level FlightAware Approximate
Sat 06:20:00 PM 78.0299 -139.3276 293° West  Level FlightAware Approximate
Sat 06:21:00 PM 78.0787 -139.9071 292° West  Level FlightAware Approximate
Sat 06:22:00 PM 78.1264 -140.4912 292° West  Level FlightAware Approximate
Sat 06:23:00 PM 78.1733 -141.0791 292° West  Level FlightAware Approximate
Sat 06:24:00 PM 78.2215 -141.6667 292° West  Level FlightAware Approximate
Sat 06:25:00 PM 78.2686 -142.2591 292° West  Level FlightAware Approximate
Sat 06:26:00 PM 78.3144 -142.8560 291° West  Level FlightAware Approximate
Sat 06:27:00 PM 78.3589 -143.4576 290° West  Level FlightAware Approximate
Sat 06:28:00 PM 78.4022 -144.0636 290° West  Level FlightAware Approximate
Sat 06:29:00 PM 78.4443 -144.6741 289° West  Level FlightAware Approximate
Sat 06:30:00 PM 78.4850 -145.2888 289° West  Level FlightAware Approximate
Sat 06:31:00 PM 78.5244 -145.9078 288° West  Level FlightAware Approximate
Sat 06:31:00 PM 78.1667 -141.0000 292° West 474 545 34,000  Level ETMS Enhanced Traffic Management System
Sat 06:31:41 PM 78.1833 -141.0000 292° West 486 559 34,000  Level Anchorage Center
Sat 06:32:00 PM 78.5626 -146.5310 287° West  Level FlightAware Approximate
Sat 06:33:00 PM 78.5994 -147.1582 287° West  Level FlightAware Approximate
Sat 06:34:00 PM 78.6348 -147.7893 286° West  Level FlightAware Approximate
Sat 06:35:00 PM 78.6690 -148.4243 286° West  Level FlightAware Approximate
Sat 06:36:00 PM 78.7017 -149.0629 285° West  Level FlightAware Approximate
Sat 06:37:00 PM 78.6343 -147.8398 285° West 474 545 34,000  Level FlightAware Transoceanic
Sat 06:38:00 PM 78.6805 -148.4950 285° West 486 559 34,000  Level FlightAware Transoceanic
Sat 06:39:00 PM 78.7130 -149.1467 284° West 486 559 34,000  Level FlightAware Transoceanic
Sat 06:40:00 PM 78.7441 -149.8021 283° West 486 559 34,000  Level FlightAware Transoceanic
Sat 06:41:00 PM 78.7738 -150.4609 283° West 486 559 34,000  Level FlightAware Transoceanic
Sat 06:42:00 PM 78.8020 -151.1232 282° West 486 559 34,000  Level FlightAware Transoceanic
Sat 06:43:00 PM 78.8287 -151.7886 281° West 486 559 34,000  Level FlightAware Transoceanic
Sat 06:44:00 PM 78.8540 -152.4571 281° West 486 559 34,000  Level FlightAware Transoceanic
Sat 06:45:00 PM 78.8778 -153.1285 280° West 486 559 34,000  Level FlightAware Transoceanic
Sat 06:46:00 PM 78.9001 -153.8027 279° West 486 559 34,000  Level FlightAware Transoceanic
Sat 06:47:00 PM 78.9208 -154.4794 279° West 486 559 34,000  Level FlightAware Transoceanic
Sat 06:48:00 PM 78.9401 -155.1586 278° West 486 559 34,000  Level FlightAware Transoceanic
Sat 06:49:00 PM 78.9578 -155.8400 277° West 486 559 34,000  Level FlightAware Transoceanic
Sat 06:50:00 PM 78.9741 -156.5235 277° West 486 559 34,000  Level FlightAware Transoceanic
Sat 06:51:00 PM 78.9887 -157.2089 276° West 486 559 34,000  Level FlightAware Transoceanic
Sat 06:52:00 PM 79.0019 -157.8960 275° West 486 559 34,000  Level FlightAware Transoceanic
Sat 06:53:00 PM 79.0135 -158.5846 275° West 486 559 34,000  Level FlightAware Transoceanic
Sat 06:54:00 PM 79.0235 -159.2746 274° West 486 559 34,000  Level FlightAware Transoceanic
Sat 06:55:00 PM 79.0320 -159.9657 273° West 486 559 34,000  Level FlightAware Transoceanic
Sat 06:56:00 PM 79.0389 -160.6578 273° West 486 559 34,000  Level FlightAware Transoceanic
Sat 06:57:00 PM 79.0443 -161.3506 272° West 486 559 34,000  Level FlightAware Transoceanic
Sat 06:58:00 PM 79.0481 -162.0440 271° West 486 559 34,000  Level FlightAware Transoceanic
Sat 06:59:00 PM 79.0503 -162.7378 271° West 486 559 34,000  Level FlightAware Transoceanic
Sat 07:00:00 PM 79.0510 -163.4318 270° West 486 559 34,000  Level FlightAware Transoceanic
Sat 07:01:00 PM 79.0501 -164.1257 269° West 486 559 34,000  Level FlightAware Transoceanic
Sat 07:02:00 PM 79.0476 -164.8195 269° West 486 559 34,000  Level FlightAware Transoceanic
Sat 07:03:00 PM 79.0436 -165.5128 268° West 486 559 34,000  Level FlightAware Transoceanic
Sat 07:04:00 PM 79.0380 -166.2056 267° West 486 559 34,000  Level FlightAware Transoceanic
Sat 07:05:00 PM 79.0308 -166.8975 267° West 486 559 34,000  Level FlightAware Transoceanic
Sat 07:06:00 PM 79.0221 -167.5885 266° West 486 559 34,000  Level FlightAware Transoceanic
Sat 07:07:00 PM 79.0118 -168.2783 265° West 486 559 34,000 -63 Level FlightAware Transoceanic
Sat 07:08:00 PM 79.0002 -168.9547 265° West  Level FlightAware Approximate
Sat 07:09:00 PM 78.9871 -169.6295 265° West  Level FlightAware Approximate
Sat 07:10:00 PM 78.9663 -169.5961 255° West  Level FlightAware Approximate
Sat 07:11:00 PM 78.9301 -170.2448 254° West  Level FlightAware Approximate
Sat 07:12:00 PM 78.8925 -170.8891 253° West  Level FlightAware Approximate
Sat 07:13:00 PM 78.8535 -171.5291 253° West  Level FlightAware Approximate
Sat 07:14:00 PM 78.8147 -172.1671 253° West  Level FlightAware Approximate
Sat 07:15:00 PM 78.7762 -172.8035 253° West  Level FlightAware Approximate
Sat 07:16:00 PM 78.7363 -173.4354 252° West  Level FlightAware Approximate
Sat 07:17:00 PM 78.6951 -174.0629 252° West  Level FlightAware Approximate
Sat 07:18:00 PM 78.6525 -174.6858 251° West  Level FlightAware Approximate
Sat 07:19:00 PM 78.6087 -175.3040 251° West  Level FlightAware Approximate
Sat 07:20:00 PM 78.5636 -175.9175 250° West  Level FlightAware Approximate
Sat 07:21:00 PM 78.5173 -176.5262 249° West  Level FlightAware Approximate
Sat 07:22:00 PM 78.4696 -177.1299 249° West  Level FlightAware Approximate
Sat 07:23:00 PM 78.4208 -177.7288 248° West  Level FlightAware Approximate
Sat 07:24:00 PM 78.3707 -178.3226 248° West  Level FlightAware Approximate
Sat 07:25:00 PM 78.3194 -178.9113 247° West  Level FlightAware Approximate
Sat 07:26:00 PM 78.2670 -179.4948 246° West  Level FlightAware Approximate
Sat 07:27:00 PM 78.2133 179.9268 246° West  Level FlightAware Approximate
Sat 07:28:00 PM 78.1585 179.3536 245° Southwest  Level FlightAware Approximate
Sat 07:29:00 PM 78.1026 178.7857 245° Southwest  Level FlightAware Approximate
Sat 07:30:00 PM 78.0455 178.2231 244° Southwest  Level FlightAware Approximate
Sat 07:31:00 PM 77.9873 177.6658 244° Southwest  Level FlightAware Approximate
Sat 07:32:00 PM 77.9281 177.1138 243° Southwest  Level FlightAware Approximate
Sat 07:33:00 PM 77.8677 176.5672 242° Southwest  Level FlightAware Approximate
Sat 07:34:00 PM 77.8063 176.0260 242° Southwest  Level FlightAware Approximate
Sat 07:35:00 PM 77.7439 175.4902 241° Southwest  Level FlightAware Approximate
Sat 07:36:00 PM 77.6804 174.9597 241° Southwest  Level FlightAware Approximate
Sat 07:37:00 PM 77.6159 174.4347 240° Southwest  Level FlightAware Approximate
Sat 07:38:00 PM 77.5504 173.9151 240° Southwest  Level FlightAware Approximate
Sat 07:39:00 PM 77.4839 173.4008 239° Southwest  Level FlightAware Approximate
Sat 07:40:00 PM 77.4165 172.8920 239° Southwest  Level FlightAware Approximate
Sat 07:41:00 PM 77.3481 172.3885 238° Southwest  Level FlightAware Approximate
Sat 07:42:00 PM 77.2788 171.8903 238° Southwest  Level FlightAware Approximate
Sat 07:43:00 PM 77.2085 171.3976 237° Southwest  Level FlightAware Approximate
Sat 07:44:00 PM 77.1374 170.9101 237° Southwest  Level FlightAware Approximate
Sat 07:45:00 PM 77.0654 170.4279 236° Southwest  Level FlightAware Approximate
Sat 07:46:00 PM 76.9923 169.9514 235° Southwest  Level FlightAware Approximate
Sat 07:47:00 PM 76.9175 169.4830 235° Southwest  Level FlightAware Approximate
Sat 07:48:00 PM 76.8419 169.0199 234° Southwest  Level FlightAware Approximate
Sat 07:49:00 PM 76.7654 168.5620 234° Southwest  Level FlightAware Approximate
Sat 07:50:00 PM 76.6882 168.1093 234° Southwest  Level FlightAware Approximate
Sat 07:51:00 PM 76.6101 167.6618 233° Southwest  Level FlightAware Approximate
Sat 07:52:00 PM 76.5313 167.2194 233° Southwest  Level FlightAware Approximate
Sat 07:53:00 PM 76.4517 166.7820 232° Southwest  Level FlightAware Approximate
Sat 07:54:00 PM 76.3713 166.3497 232° Southwest  Level FlightAware Approximate
Sat 07:55:00 PM 76.2902 165.9224 231° Southwest  Level FlightAware Approximate
Sat 07:56:00 PM 76.2084 165.5001 231° Southwest  Level FlightAware Approximate
Sat 07:57:00 PM 76.1258 165.0826 231° Southwest  Level FlightAware Approximate
Sat 07:58:00 PM 76.0426 164.6700 230° Southwest  Level FlightAware Approximate
Sat 07:59:00 PM 75.9587 164.2623 230° Southwest  Level FlightAware Approximate
Sat 08:00:00 PM 75.8741 163.8593 229° Southwest  Level FlightAware Approximate
Sat 08:01:00 PM 75.7888 163.4610 229° Southwest  Level FlightAware Approximate
Sat 08:02:00 PM 75.7029 163.0673 229° Southwest  Level FlightAware Approximate
Sat 08:03:00 PM 75.6164 162.6783 228° Southwest  Level FlightAware Approximate
Sat 08:04:00 PM 75.5292 162.2939 228° Southwest  Level FlightAware Approximate
Sat 08:05:00 PM 75.4414 161.9140 228° Southwest  Level FlightAware Approximate
Sat 08:06:00 PM 75.3530 161.5386 227° Southwest  Level FlightAware Approximate
Sat 08:07:00 PM 75.2640 161.1676 227° Southwest  Level FlightAware Approximate
Sat 08:08:00 PM 75.1744 160.8009 226° Southwest  Level FlightAware Approximate
Sat 08:09:00 PM 75.0843 160.4386 226° Southwest  Level FlightAware Approximate
Sat 08:10:00 PM 74.9936 160.0806 226° Southwest  Level FlightAware Approximate
Sat 08:11:00 PM 74.9023 159.7267 225° Southwest  Level FlightAware Approximate
Sat 08:12:00 PM 74.8105 159.3771 225° Southwest  Level FlightAware Approximate
Sat 08:13:00 PM 74.7181 159.0315 225° Southwest  Level FlightAware Approximate
Sat 08:14:00 PM 74.6253 158.6900 224° Southwest  Level FlightAware Approximate
Sat 08:15:00 PM 74.5319 158.3526 224° Southwest  Level FlightAware Approximate
Sat 08:16:00 PM 74.4380 158.0191 224° Southwest  Level FlightAware Approximate
Sat 08:17:00 PM 74.3436 157.6895 223° Southwest  Level FlightAware Approximate
Sat 08:18:00 PM 74.2487 157.3637 223° Southwest  Level FlightAware Approximate
Sat 08:19:00 PM 74.1534 157.0418 223° Southwest  Level FlightAware Approximate
Sat 08:20:00 PM 74.0576 156.7236 222° Southwest  Level FlightAware Approximate
Sat 08:21:00 PM 73.9613 156.4092 222° Southwest  Level FlightAware Approximate
Sat 08:22:00 PM 73.8646 156.0984 222° Southwest  Level FlightAware Approximate
Sat 08:23:00 PM 73.7674 155.7912 222° Southwest  Level FlightAware Approximate
Sat 08:24:00 PM 73.6698 155.4876 221° Southwest  Level FlightAware Approximate
Sat 08:25:00 PM 73.5717 155.1875 221° Southwest  Level FlightAware Approximate
Sat 08:26:00 PM 73.4733 154.8909 221° Southwest  Level FlightAware Approximate
Sat 08:27:00 PM 73.3744 154.5977 220° Southwest  Level FlightAware Approximate
Sat 08:28:00 PM 73.2751 154.3079 220° Southwest  Level FlightAware Approximate
Sat 08:29:00 PM 73.1754 154.0214 220° Southwest  Level FlightAware Approximate
Sat 08:30:00 PM 73.0753 153.7382 220° Southwest  Level FlightAware Approximate
Sat 08:31:00 PM 72.9749 153.4583 219° Southwest  Level FlightAware Approximate
Sat 08:32:00 PM 72.8740 153.1815 219° Southwest  Level FlightAware Approximate
Sat 08:33:00 PM 72.7728 152.9079 219° Southwest  Level FlightAware Approximate
Sat 08:34:00 PM 72.6712 152.6373 218° Southwest  Level FlightAware Approximate
Sat 08:35:00 PM 72.5699 152.3676 219° Southwest  Level FlightAware Approximate
Sat 08:36:00 PM 72.4694 152.0955 219° Southwest  Level FlightAware Approximate
Sat 08:37:00 PM 72.3686 151.8264 219° Southwest  Level FlightAware Approximate
Sat 08:38:00 PM 72.2674 151.5602 219° Southwest  Level FlightAware Approximate
Sat 08:39:00 PM 72.1658 151.2970 218° Southwest  Level FlightAware Approximate
Sat 08:40:00 PM 72.0639 151.0367 218° Southwest  Level FlightAware Approximate
Sat 08:41:00 PM 71.9617 150.7793 218° Southwest  Level FlightAware Approximate
Sat 08:42:00 PM 71.8572 150.5328 216° Southwest  Level FlightAware Approximate
Sat 08:43:00 PM 71.7522 150.2901 216° Southwest  Level FlightAware Approximate
Sat 08:44:00 PM 71.6469 150.0502 216° Southwest  Level FlightAware Approximate
Sat 08:45:00 PM 71.5412 149.8128 215° Southwest  Level FlightAware Approximate
Sat 08:46:00 PM 71.4353 149.5781 215° Southwest  Level FlightAware Approximate
Sat 08:47:00 PM 71.3291 149.3460 215° Southwest  Level FlightAware Approximate
Sat 08:48:00 PM 71.2226 149.1164 215° Southwest  Level FlightAware Approximate
Sat 08:49:00 PM 71.1158 148.8893 215° Southwest  Level FlightAware Approximate
Sat 08:50:00 PM 71.0088 148.6646 214° Southwest  Level FlightAware Approximate
Sat 08:51:00 PM 70.9015 148.4424 214° Southwest  Level FlightAware Approximate
Sat 08:52:00 PM 70.7939 148.2226 214° Southwest  Level FlightAware Approximate
Sat 08:53:00 PM 70.6861 148.0051 214° Southwest  Level FlightAware Approximate
Sat 08:54:00 PM 70.5811 147.7775 220° Southwest  Level FlightAware Approximate
Sat 08:55:00 PM 70.4813 147.5297 220° Southwest  Level FlightAware Approximate
Sat 08:56:00 PM 70.3812 147.2844 219° Southwest  Level FlightAware Approximate
Sat 08:57:00 PM 70.2807 147.0415 219° Southwest  Level FlightAware Approximate
Sat 08:58:00 PM 70.1799 146.8010 219° Southwest  Level FlightAware Approximate
Sat 08:59:00 PM 70.0788 146.5628 219° Southwest  Level FlightAware Approximate
Sat 09:00:00 PM 69.9774 146.3269 219° Southwest  Level FlightAware Approximate
Sat 09:01:00 PM 69.8757 146.0933 218° Southwest  Level FlightAware Approximate
Sat 09:02:00 PM 69.7737 145.8620 218° Southwest  Level FlightAware Approximate
Sat 09:03:00 PM 69.6714 145.6329 218° Southwest  Level FlightAware Approximate
Sat 09:04:00 PM 69.5688 145.4060 218° Southwest  Level FlightAware Approximate
Sat 09:05:00 PM 69.4659 145.1812 217° Southwest  Level FlightAware Approximate
Sat 09:06:00 PM 69.3627 144.9586 217° Southwest  Level FlightAware Approximate
Sat 09:07:00 PM 69.2592 144.7382 217° Southwest  Level FlightAware Approximate
Sat 09:08:00 PM 69.1555 144.5198 217° Southwest  Level FlightAware Approximate
Sat 09:09:00 PM 69.0515 144.3035 217° Southwest  Level FlightAware Approximate
Sat 09:10:00 PM 68.9472 144.0892 216° Southwest  Level FlightAware Approximate
Sat 09:11:00 PM 68.8426 143.8770 216° Southwest  Level FlightAware Approximate
Sat 09:12:00 PM 68.7378 143.6668 216° Southwest  Level FlightAware Approximate
Sat 09:13:00 PM 68.6327 143.4585 216° Southwest  Level FlightAware Approximate
Sat 09:14:00 PM 68.5274 143.2522 216° Southwest  Level FlightAware Approximate
Sat 09:15:00 PM 68.4218 143.0478 215° Southwest  Level FlightAware Approximate
Sat 09:16:00 PM 68.3159 142.8452 215° Southwest  Level FlightAware Approximate
Sat 09:17:00 PM 68.2098 142.6449 215° Southwest  Level FlightAware Approximate
Sat 09:18:00 PM 68.1034 142.4464 215° Southwest  Level FlightAware Approximate
Sat 09:19:00 PM 67.9967 142.2498 215° Southwest  Level FlightAware Approximate
Sat 09:20:00 PM 67.8899 142.0551 214° Southwest  Level FlightAware Approximate
Sat 09:21:00 PM 67.7828 141.8620 214° Southwest  Level FlightAware Approximate
Sat 09:22:00 PM 67.6754 141.6708 214° Southwest  Level FlightAware Approximate
Sat 09:23:00 PM 67.5679 141.4813 214° Southwest  Level FlightAware Approximate
Sat 09:24:00 PM 67.4604 141.2921 214° Southwest  Level FlightAware Approximate
Sat 09:25:00 PM 67.3529 141.1044 214° Southwest  Level FlightAware Approximate
Sat 09:26:00 PM 67.2451 140.9183 214° Southwest  Level FlightAware Approximate
Sat 09:27:00 PM 67.1371 140.7339 214° Southwest  Level FlightAware Approximate
Sat 09:28:00 PM 67.0289 140.5512 213° Southwest  Level FlightAware Approximate
Sat 09:29:00 PM 66.9205 140.3701 213° Southwest  Level FlightAware Approximate
Sat 09:30:00 PM 66.8118 140.1906 213° Southwest  Level FlightAware Approximate
Sat 09:31:00 PM 66.7030 140.0126 213° Southwest  Level FlightAware Approximate
Sat 09:32:00 PM 66.5940 139.8362 213° Southwest  Level FlightAware Approximate
Sat 09:33:00 PM 66.4848 139.6614 213° Southwest  Level FlightAware Approximate
Sat 09:34:00 PM 66.3754 139.4881 212° Southwest  Level FlightAware Approximate
Sat 09:35:00 PM 66.2658 139.3163 212° Southwest  Level FlightAware Approximate
Sat 09:36:00 PM 66.1560 139.1460 212° Southwest  Level FlightAware Approximate
Sat 09:37:00 PM 66.0460 138.9772 212° Southwest  Level FlightAware Approximate
Sat 09:38:00 PM 65.9358 138.8098 212° Southwest  Level FlightAware Approximate
Sat 09:39:00 PM 65.8255 138.6439 212° Southwest  Level FlightAware Approximate
Sat 09:40:00 PM 65.7150 138.4794 211° Southwest  Level FlightAware Approximate
Sat 09:41:00 PM 65.6043 138.3162 211° Southwest  Level FlightAware Approximate
Sat 09:42:00 PM 65.4934 138.1545 211° Southwest  Level FlightAware Approximate
Sat 09:43:00 PM 65.3824 137.9941 211° Southwest  Level FlightAware Approximate
Sat 09:44:00 PM 65.2711 137.8353 211° Southwest  Level FlightAware Approximate
Sat 09:45:00 PM 65.1596 137.6780 211° Southwest  Level FlightAware Approximate
Sat 09:46:00 PM 65.0480 137.5220 211° Southwest  Level FlightAware Approximate
Sat 09:47:00 PM 64.9362 137.3673 210° Southwest  Level FlightAware Approximate
Sat 09:48:00 PM 64.8242 137.2140 210° Southwest  Level FlightAware Approximate
Sat 09:49:00 PM 64.7121 137.0618 210° Southwest  Level FlightAware Approximate
Sat 09:50:00 PM 64.5999 136.9110 210° Southwest  Level FlightAware Approximate
Sat 09:51:00 PM 64.4873 136.7622 210° Southwest  Level FlightAware Approximate
Sat 09:52:00 PM 64.3744 136.6150 209° Southwest  Level FlightAware Approximate
Sat 09:53:00 PM 64.2614 136.4690 209° Southwest  Level FlightAware Approximate
Sat 09:54:00 PM 64.1482 136.3242 209° Southwest  Level FlightAware Approximate
Sat 09:55:00 PM 64.0349 136.1806 209° Southwest  Level FlightAware Approximate
Sat 09:56:00 PM 63.9215 136.0381 209° Southwest  Level FlightAware Approximate
Sat 09:57:00 PM 63.8079 135.8968 209° Southwest  Level FlightAware Approximate
Sat 09:58:00 PM 63.6942 135.7566 209° Southwest  Level FlightAware Approximate
Sat 09:59:00 PM 63.5804 135.6176 209° Southwest  Level FlightAware Approximate
Sat 10:00:00 PM 63.4664 135.4796 208° Southwest  Level FlightAware Approximate
Sat 10:01:00 PM 63.3523 135.3428 208° Southwest  Level FlightAware Approximate
Sat 10:02:00 PM 63.2381 135.2070 208° Southwest  Level FlightAware Approximate
Sat 10:03:00 PM 63.1237 135.0723 208° Southwest  Level FlightAware Approximate
Sat 10:04:00 PM 63.0092 134.9386 208° Southwest  Level FlightAware Approximate
Sat 10:05:00 PM 62.8946 134.8060 208° Southwest  Level FlightAware Approximate
Sat 10:06:00 PM 62.7798 134.6745 208° Southwest  Level FlightAware Approximate
Sat 10:07:00 PM 62.6650 134.5439 208° Southwest  Level FlightAware Approximate
Sat 10:08:00 PM 62.5500 134.4144 207° Southwest  Level FlightAware Approximate
Sat 10:09:00 PM 62.4349 134.2858 207° Southwest  Level FlightAware Approximate
Sat 10:10:00 PM 62.3197 134.1583 207° Southwest  Level FlightAware Approximate
Sat 10:11:00 PM 62.2045 134.0309 207° Southwest  Level FlightAware Approximate
Sat 10:12:00 PM 62.0895 133.9036 207° Southwest  Level FlightAware Approximate
Sat 10:13:00 PM 61.9743 133.7774 207° Southwest  Level FlightAware Approximate
Sat 10:14:00 PM 61.8590 133.6521 207° Southwest  Level FlightAware Approximate
Sat 10:15:00 PM 61.7436 133.5277 207° Southwest  Level FlightAware Approximate
Sat 10:16:00 PM 61.6281 133.4043 207° Southwest  Level FlightAware Approximate
Sat 10:17:00 PM 61.5124 133.2817 207° Southwest  Level FlightAware Approximate
Sat 10:18:00 PM 61.3967 133.1601 207° Southwest  Level FlightAware Approximate
Sat 10:19:00 PM 61.2808 133.0394 207° Southwest  Level FlightAware Approximate
Sat 10:20:00 PM 61.1649 132.9196 207° Southwest  Level FlightAware Approximate
Sat 10:21:00 PM 61.0488 132.8006 206° Southwest  Level FlightAware Approximate
Sat 10:22:00 PM 60.9327 132.6825 206° Southwest  Level FlightAware Approximate
Sat 10:23:00 PM 60.8164 132.5653 206° Southwest  Level FlightAware Approximate
Sat 10:24:00 PM 60.7000 132.4489 206° Southwest  Level FlightAware Approximate
Sat 10:25:00 PM 60.5835 132.3334 206° Southwest  Level FlightAware Approximate
Sat 10:26:00 PM 60.4670 132.2187 206° Southwest  Level FlightAware Approximate
Sat 10:27:00 PM 60.3503 132.1048 206° Southwest  Level FlightAware Approximate
Sat 10:28:00 PM 60.2336 131.9917 206° Southwest  Level FlightAware Approximate
Sat 10:29:00 PM 60.1167 131.8795 206° Southwest  Level FlightAware Approximate
Sat 10:30:00 PM 59.9997 131.7680 205° Southwest  Level FlightAware Approximate
Sat 10:31:00 PM 59.8827 131.6573 205° Southwest  Level FlightAware Approximate
Sat 10:32:00 PM 59.7656 131.5474 205° Southwest  Level FlightAware Approximate
Sat 10:33:00 PM 59.6483 131.4382 205° Southwest  Level FlightAware Approximate
Sat 10:34:00 PM 59.5310 131.3299 205° Southwest  Level FlightAware Approximate
Sat 10:35:00 PM 59.4131 131.2246 204° Southwest  Level FlightAware Approximate
Sat 10:36:00 PM 59.2949 131.1205 204° Southwest  Level FlightAware Approximate
Sat 10:37:00 PM 59.1767 131.0170 204° Southwest  Level FlightAware Approximate
Sat 10:38:00 PM 59.0584 130.9143 204° Southwest  Level FlightAware Approximate
Sat 10:39:00 PM 58.9400 130.8122 204° Southwest  Level FlightAware Approximate
Sat 10:40:00 PM 58.8216 130.7109 204° Southwest  Level FlightAware Approximate
Sat 10:41:00 PM 58.7052 130.6022 209° Southwest  Level FlightAware Approximate
Sat 10:42:00 PM 58.5918 130.4818 209° Southwest  Level FlightAware Approximate
Sat 10:43:00 PM 58.4783 130.3622 209° Southwest  Level FlightAware Approximate
Sat 10:44:00 PM 58.3647 130.2434 209° Southwest  Level FlightAware Approximate
Sat 10:45:00 PM 58.2510 130.1254 209° Southwest  Level FlightAware Approximate
Sat 10:46:00 PM 58.1372 130.0081 209° Southwest  Level FlightAware Approximate
Sat 10:47:00 PM 58.0233 129.8915 208° Southwest  Level FlightAware Approximate
Sat 10:48:00 PM 57.9093 129.7757 208° Southwest  Level FlightAware Approximate
Sat 10:49:00 PM 57.7952 129.6607 208° Southwest  Level FlightAware Approximate
Sat 10:50:00 PM 57.6809 129.5463 208° Southwest  Level FlightAware Approximate
Sat 10:51:00 PM 57.5666 129.4327 208° Southwest  Level FlightAware Approximate
Sat 10:52:00 PM 57.4523 129.3192 208° Southwest  Level FlightAware Approximate
Sat 10:53:00 PM 57.3381 129.2060 208° Southwest  Level FlightAware Approximate
Sat 10:54:00 PM 57.2238 129.0935 208° Southwest  Level FlightAware Approximate
Sat 10:55:00 PM 57.1093 128.9816 208° Southwest  Level FlightAware Approximate
Sat 10:56:00 PM 56.9948 128.8705 208° Southwest  Level FlightAware Approximate
Sat 10:57:00 PM 56.8801 128.7601 208° Southwest  Level FlightAware Approximate
Sat 10:58:00 PM 56.7653 128.6505 207° Southwest  Level FlightAware Approximate
Sat 10:59:00 PM 56.6503 128.5421 207° Southwest  Level FlightAware Approximate
Sat 11:00:00 PM 56.5351 128.4344 207° Southwest  Level FlightAware Approximate
Sat 11:01:00 PM 56.4199 128.3273 207° Southwest  Level FlightAware Approximate
Sat 11:02:00 PM 56.3046 128.2209 207° Southwest  Level FlightAware Approximate
Sat 11:03:00 PM 56.1893 128.1148 207° Southwest  Level FlightAware Approximate
Sat 11:04:00 PM 56.0739 128.0093 207° Southwest  Level FlightAware Approximate
Sat 11:05:00 PM 55.9584 127.9044 207° Southwest  Level FlightAware Approximate
Sat 11:06:00 PM 55.8429 127.8001 207° Southwest  Level FlightAware Approximate
Sat 11:07:00 PM 55.7272 127.6963 207° Southwest  Level FlightAware Approximate
Sat 11:08:00 PM 55.6115 127.5931 207° Southwest  Level FlightAware Approximate
Sat 11:09:00 PM 55.4957 127.4906 207° Southwest  Level FlightAware Approximate
Sat 11:10:00 PM 55.3798 127.3886 207° Southwest  Level FlightAware Approximate
Sat 11:11:00 PM 55.2578 127.3295 182° South  Level FlightAware Approximate
Sat 11:12:00 PM 55.1283 127.3211 182° South  Level FlightAware Approximate
Sat 11:13:00 PM 54.9989 127.3127 182° South  Level FlightAware Approximate
Sat 11:14:00 PM 54.8695 127.3044 182° South  Level FlightAware Approximate
Sat 11:15:00 PM 54.7401 127.2953 183° South  Level FlightAware Approximate
Sat 11:16:00 PM 54.6107 127.2851 183° South  Level FlightAware Approximate
Sat 11:17:00 PM 54.4813 127.2750 183° South  Level FlightAware Approximate
Sat 11:18:00 PM 54.3520 127.2650 183° South  Level FlightAware Approximate
Sat 11:19:00 PM 54.2226 127.2550 183° South  Level FlightAware Approximate
Sat 11:20:00 PM 54.0932 127.2451 183° South  Level FlightAware Approximate
Sat 11:21:00 PM 53.9638 127.2353 183° South  Level FlightAware Approximate
Sat 11:22:00 PM 53.8344 127.2255 183° South  Level FlightAware Approximate
Sat 11:23:00 PM 53.7052 127.2197 171° South  Level FlightAware Approximate
Sat 11:24:00 PM 53.5773 127.2540 171° South  Level FlightAware Approximate
Sat 11:25:00 PM 53.4493 127.2879 171° South  Level FlightAware Approximate
Sat 11:26:00 PM 53.3214 127.3217 171° South  Level FlightAware Approximate
Sat 11:27:00 PM 53.1935 127.3553 171° South  Level FlightAware Approximate
Sat 11:28:00 PM 53.0655 127.3887 171° South  Level FlightAware Approximate
Sat 11:29:00 PM 52.9375 127.4219 171° South  Level FlightAware Approximate
Sat 11:30:00 PM 52.8096 127.4549 171° South  Level FlightAware Approximate
Sat 11:31:00 PM 52.6816 127.4877 171° South  Level FlightAware Approximate
Sat 11:32:00 PM 52.5537 127.5212 171° South  Level FlightAware Approximate
Sat 11:33:00 PM 52.4258 127.5551 171° South  Level FlightAware Approximate
Sat 11:34:00 PM 52.2980 127.5889 171° South  Level FlightAware Approximate
Sat 11:35:00 PM 52.1701 127.6224 171° South  Level FlightAware Approximate
Sat 11:36:00 PM 52.0422 127.6557 171° South  Level FlightAware Approximate
Sat 11:37:00 PM 51.9132 127.6667 180° South  Level FlightAware Approximate
Sat 11:38:00 PM 51.7837 127.6667 180° South  Level FlightAware Approximate
Sat 11:39:00 PM 51.6542 127.6667 180° South  Level FlightAware Approximate
Sat 11:40:00 PM 51.5247 127.6667 180° South  Level FlightAware Approximate
Sat 11:41:00 PM 51.3952 127.6667 180° South  Level FlightAware Approximate
Sat 11:42:00 PM 51.2664 127.6529 190° South  Level FlightAware Approximate
Sat 11:43:00 PM 51.1387 127.6182 190° South  Level FlightAware Approximate
Sat 11:44:00 PM 51.0110 127.5837 190° South  Level FlightAware Approximate
Sat 11:45:00 PM 50.8834 127.5493 190° South  Level FlightAware Approximate
Sat 11:46:00 PM 50.7556 127.5152 190° South  Level FlightAware Approximate
Sat 11:47:00 PM 50.6279 127.4812 190° South  Level FlightAware Approximate
Sat 11:48:00 PM 50.5002 127.4474 190° South  Level FlightAware Approximate
Sat 11:49:00 PM 50.3728 127.4114 198° South  Level FlightAware Approximate
Sat 11:50:00 PM 50.2496 127.3493 198° South  Level FlightAware Approximate
Sat 11:51:00 PM 50.1265 127.2863 198° South  Level FlightAware Approximate
Sat 11:52:00 PM 50.0034 127.2236 198° South  Level FlightAware Approximate
Sat 11:53:00 PM 49.8803 127.1612 198° South  Level FlightAware Approximate
Sat 11:54:00 PM 49.7571 127.0991 198° South  Level FlightAware Approximate
Sat 11:55:00 PM 49.6339 127.0374 198° South  Level FlightAware Approximate
Sat 11:56:00 PM 49.5107 126.9759 198° South  Level FlightAware Approximate
Sat 11:57:00 PM 49.3874 126.9148 198° South  Level FlightAware Approximate
Sat 11:58:00 PM 49.2641 126.8540 198° South  Level FlightAware Approximate
Sat 11:59:00 PM 49.1408 126.7934 198° South  Level FlightAware Approximate
Sun 12:00:00 AM 49.0174 126.7332 198° South  Level FlightAware Approximate
Sun 12:01:00 AM 48.8940 126.6733 198° South  Level FlightAware Approximate
Sun 12:02:00 AM 48.7706 126.6137 198° South  Level FlightAware Approximate
Sun 12:03:00 AM 48.6472 126.5543 198° South  Level FlightAware Approximate
Sun 12:04:00 AM 48.5237 126.4953 198° South  Level FlightAware Approximate
Sun 12:05:00 AM 48.4002 126.4365 198° South  Level FlightAware Approximate
Sun 12:06:00 AM 48.2766 126.3780 197° South  Level FlightAware Approximate
Sun 12:07:00 AM 48.1531 126.3198 197° South  Level FlightAware Approximate
Sun 12:08:00 AM 48.0295 126.2619 197° South  Level FlightAware Approximate
Sun 12:09:00 AM 47.9058 126.2043 197° South  Level FlightAware Approximate
Sun 12:10:00 AM 47.7822 126.1469 197° South  Level FlightAware Approximate
Sun 12:11:00 AM 47.6584 126.0904 197° South  Level FlightAware Approximate
Sun 12:12:00 AM 47.5344 126.0346 197° South  Level FlightAware Approximate
Sun 12:13:00 AM 47.4105 125.9792 197° South  Level FlightAware Approximate
Sun 12:14:00 AM 47.2865 125.9240 197° South  Level FlightAware Approximate
Sun 12:15:00 AM 47.1625 125.8690 197° South  Level FlightAware Approximate
Sun 12:16:00 AM 47.0384 125.8143 197° South  Level FlightAware Approximate
Sun 12:17:00 AM 46.9143 125.7599 197° South  Level FlightAware Approximate
Sun 12:18:00 AM 46.7902 125.7057 197° South  Level FlightAware Approximate
Sun 12:19:00 AM 46.6661 125.6518 197° South  Level FlightAware Approximate
Sun 12:20:00 AM 46.5420 125.5981 197° South  Level FlightAware Approximate
Sun 12:21:00 AM 46.4178 125.5446 197° South  Level FlightAware Approximate
Sun 12:22:00 AM 46.2936 125.4914 196° South  Level FlightAware Approximate
Sun 12:23:00 AM 46.1694 125.4385 196° South  Level FlightAware Approximate
Sun 12:24:00 AM 46.0451 125.3857 196° South  Level FlightAware Approximate
Sun 12:25:00 AM 45.9210 125.3327 197° South  Level FlightAware Approximate
Sun 12:26:00 AM 45.7969 125.2795 197° South  Level FlightAware Approximate
Sun 12:27:00 AM 45.6727 125.2265 197° South  Level FlightAware Approximate
Sun 12:28:00 AM 45.5486 125.1738 197° South  Level FlightAware Approximate
Sun 12:29:00 AM 45.4244 125.1213 197° South  Level FlightAware Approximate
Sun 12:30:00 AM 45.3002 125.0691 196° South  Level FlightAware Approximate
Sun 12:31:00 AM 45.1760 125.0170 196° South  Level FlightAware Approximate
Sun 12:32:00 AM 45.0518 124.9652 196° South  Level FlightAware Approximate
Sun 12:33:00 AM 44.9275 124.9137 196° South  Level FlightAware Approximate
Sun 12:34:00 AM 44.8032 124.8623 196° South  Level FlightAware Approximate
Sun 12:35:00 AM 44.6789 124.8112 196° South  Level FlightAware Approximate
Sun 12:36:00 AM 44.5545 124.7603 196° South  Level FlightAware Approximate
Sun 12:37:00 AM 44.4302 124.7096 196° South  Level FlightAware Approximate
Sun 12:38:00 AM 44.3058 124.6591 196° South  Level FlightAware Approximate
Sun 12:39:00 AM 44.1813 124.6093 196° South  Level FlightAware Approximate
Sun 12:40:00 AM 44.0568 124.5597 196° South  Level FlightAware Approximate
Sun 12:41:00 AM 43.9322 124.5104 196° South  Level FlightAware Approximate
Sun 12:42:00 AM 43.8076 124.4613 196° South  Level FlightAware Approximate
Sun 12:43:00 AM 43.6830 124.4124 196° South  Level FlightAware Approximate
Sun 12:44:00 AM 43.5584 124.3637 196° South  Level FlightAware Approximate
Sun 12:45:00 AM 43.4338 124.3152 196° South  Level FlightAware Approximate
Sun 12:46:00 AM 43.3091 124.2669 196° South  Level FlightAware Approximate
Sun 12:47:00 AM 43.1844 124.2187 196° South  Level FlightAware Approximate
Sun 12:48:00 AM 43.0597 124.1708 196° South  Level FlightAware Approximate
Sun 12:49:00 AM 42.9350 124.1231 196° South  Level FlightAware Approximate
Sun 12:50:00 AM 42.8103 124.0756 196° South  Level FlightAware Approximate
Sun 12:51:00 AM 42.6855 124.0282 196° South  Level FlightAware Approximate
Sun 12:52:00 AM 42.5607 123.9811 196° South  Level FlightAware Approximate
Sun 12:53:00 AM 42.4360 123.9338 196° South  Level FlightAware Approximate
Sun 12:54:00 AM 42.3112 123.8867 196° South  Level FlightAware Approximate
Sun 12:55:00 AM 42.1865 123.8398 196° South  Level FlightAware Approximate
Sun 12:56:00 AM 42.0617 123.7930 196° South  Level FlightAware Approximate
Sun 12:57:00 AM 41.9369 123.7465 196° South  Level FlightAware Approximate
Sun 12:58:00 AM 41.8121 123.7001 195° South  Level FlightAware Approximate
Sun 12:59:00 AM 41.6872 123.6539 195° South  Level FlightAware Approximate
Sun 01:00:00 AM 41.5624 123.6079 195° South  Level FlightAware Approximate
Sun 01:01:00 AM 41.4375 123.5621 195° South  Level FlightAware Approximate
Sun 01:02:00 AM 41.3126 123.5164 195° South  Level FlightAware Approximate
Sun 01:03:00 AM 41.1877 123.4709 195° South  Level FlightAware Approximate
Sun 01:04:00 AM 41.0627 123.4256 195° South  Level FlightAware Approximate
Sun 01:05:00 AM 40.9378 123.3805 195° South  Level FlightAware Approximate
Sun 01:06:00 AM 40.8128 123.3355 195° South  Level FlightAware Approximate
Sun 01:07:00 AM 40.6878 123.2907 195° South  Level FlightAware Approximate
Sun 01:08:00 AM 40.5628 123.2461 195° South  Level FlightAware Approximate
Sun 01:09:00 AM 40.4378 123.2016 195° South  Level FlightAware Approximate
Sun 01:10:00 AM 40.3128 123.1573 195° South  Level FlightAware Approximate
Sun 01:11:00 AM 40.1877 123.1132 195° South  Level FlightAware Approximate
Sun 01:12:00 AM 40.0626 123.0692 195° South  Level FlightAware Approximate
Sun 01:13:00 AM 39.9375 123.0254 195° South  Level FlightAware Approximate
Sun 01:14:00 AM 39.8124 122.9818 195° South  Level FlightAware Approximate
Sun 01:15:00 AM 39.6873 122.9383 195° South  Level FlightAware Approximate
Sun 01:16:00 AM 39.5622 122.8949 195° South  Level FlightAware Approximate
Sun 01:17:00 AM 39.4370 122.8518 195° South  Level FlightAware Approximate
Sun 01:18:00 AM 39.3119 122.8087 195° South  Level FlightAware Approximate
Sun 01:19:00 AM 39.1867 122.7659 195° South  Level FlightAware Approximate
Sun 01:20:00 AM 39.0615 122.7231 195° South  Level FlightAware Approximate
Sun 01:21:00 AM 38.9363 122.6806 195° South  Level FlightAware Approximate
Sun 01:22:00 AM 38.8110 122.6382 195° South  Level FlightAware Approximate
Sun 01:23:00 AM 38.6858 122.5959 195° South  Level FlightAware Approximate
Sun 01:24:00 AM 38.5605 122.5538 195° South  Level FlightAware Approximate
Sun 01:25:00 AM 38.4352 122.5118 195° South  Level FlightAware Approximate
Sun 01:26:00 AM 38.3100 122.4700 195° South  Level FlightAware Approximate
Sun 01:27:00 AM 38.2025 122.5111 135° Southeast  Level FlightAware Approximate
Sun 01:28:00 AM 38.1112 122.6280 135° Southeast  Level FlightAware Approximate
Sun 01:29:00 AM 38.0199 122.7446 135° Southeast  Level FlightAware Approximate
Sun 01:30:00 AM 37.9284 122.8609 135° Southeast  Level FlightAware Approximate
Sun 01:31:00 AM 37.8368 122.9769 135° Southeast  Level FlightAware Approximate
Sun 01:32:00 AM 37.7451 123.0927 135° Southeast  Level FlightAware Approximate
Sun 01:33:00 AM 37.6533 123.2081 135° Southeast  Level FlightAware Approximate
Sun 01:34:00 AM 37.5622 123.3242 127° Southeast  Level FlightAware Approximate
Sun 01:35:00 AM 37.4840 123.4543 127° Southeast  Level FlightAware Approximate
Sun 01:36:00 AM 37.4056 123.5842 127° Southeast  Level FlightAware Approximate
Sun 01:37:00 AM 37.3271 123.7138 127° Southeast  Level FlightAware Approximate
Sun 01:38:00 AM 37.2485 123.8432 127° Southeast  Level FlightAware Approximate
Sun 01:39:00 AM 37.1715 123.9738 122° Southeast  Level FlightAware Approximate
Sun 01:40:00 AM 37.1833 124.1329 90° East  Level FlightAware Approximate
Sun 01:41:00 AM 37.1982 124.2937 79° East  Level FlightAware Approximate
Sun 01:42:00 AM 37.2234 124.4532 79° East  Level FlightAware Approximate
Sun 01:43:00 AM 37.2503 124.6123 77° East  Level FlightAware Approximate
Sun 01:44:00 AM 37.2783 124.7712 77° East  Level FlightAware Approximate
Sun 01:45:00 AM 37.3009 124.9314 80° East  Level FlightAware Approximate
Sun 01:46:00 AM 37.3220 125.0921 81° East  Level FlightAware Approximate
Sun 01:47:00 AM 37.3422 125.2530 81° East  Level FlightAware Approximate
Sun 01:48:00 AM 37.3622 125.4139 81° East  Level FlightAware Approximate
Sun 01:49:00 AM 37.3772 125.5758 84° East  Level FlightAware Approximate
Sun 01:50:00 AM 37.3995 125.7360 77° East  Level FlightAware Approximate
Sun 01:51:00 AM 37.4292 125.8947 77° East  Level FlightAware Approximate
Sun 01:52:00 AM 37.4415 126.0565 82° East  Level FlightAware Approximate
Sun 01:53:00 AM 37.4640 126.2171 78° East  Level FlightAware Approximate
Sun 01:54:00 AM 37.4833 126.3777 90° East  Level FlightAware Approximate
Sun 01:55:00 AM 37.4833 126.4333 90° East  Level FlightAware Approximate
Sun 01:56:00 AM 37.4691 126.4505 90° East  Level Estimated
Sun 01:56:17 AM 37.1370 126.2530 90° East 277 319 8,300  Level FlightAware ADS-B
Sun 01:57:00 AM 37.4691 126.4505 90° East  Level Estimated
Sun 01:57:52 AM 37.1290 126.3860 94° East 251 289 7,300  Level FlightAware ADS-B
Sun 01:58:00 AM 37.4691 126.4505 90° East  Level Estimated
Sun 02:00:00 AM 37.4022 126.4378 North  Level Estimated
Sun 02:01:00 AM 37.4691 126.4505 North  Level Estimated
Sun 02:02:00 AM 37.4691 126.4505 335° Northwest  Level Estimated
Sun 02:06:17 AM 37.2930 126.6090 335° Northwest 175 201 3,200  Level FlightAware ADS-B

Login

Don't have an account? Register now (free) for customized features, flight alerts, and more!